NCAR-RAP Real-Time Weather Data

Output produced by METARs form (08 May 2021  02:27 UTC)
found at http://weather.rap.ucar.edu/surface/
 
KDNL 080153Z AUTO 29006KT 10SM CLR 18/02 A3003 RMK AO2 SLP166 T01780017
KDNL 080053Z AUTO 29003KT 10SM CLR 19/02 A3001 RMK AO2 SLP158 T01890017
KDNL 072353Z AUTO 29006KT 10SM CLR 21/01 A2999 RMK AO2 SLP153 T02060006 10233 20206 51008
KDNL 072253Z AUTO 31006G16KT 10SM CLR 22/02 A2999 RMK AO2 SLP150 T02220017
KDNL 072153Z AUTO 31015G21KT 10SM CLR 22/01 A2998 RMK AO2 SLP149 T02220006
KDNL 072053Z AUTO 29009G20KT 250V330 10SM CLR 22/02 A2997 RMK AO2 SLP145 T02220017 58007
KDNL 071953Z AUTO 31013G22KT 260V330 10SM FEW070 23/02 A2998 RMK AO2 SLP148 T02280022
KDNL 071853Z AUTO 30014G21KT 10SM CLR 22/03 A2999 RMK AO2 PK WND 32026/1805 SLP151 T02220033
KDNL 071753Z AUTO 29011G21KT 260V330 10SM CLR 22/04 A2999 RMK AO2 SLP153 T02220039 10222 20144 50000
KDNL 071653Z AUTO 31013G22KT 10SM CLR 21/05 A3000 RMK AO2 SLP157 T02110050
KDNL 071553Z AUTO 30013G20KT 10SM CLR 21/04 A3000 RMK AO2 SLP156 T02060039
KDNL 071453Z AUTO 30013G18KT 10SM CLR 19/05 A2999 RMK AO2 SLP153 T01940050 51011
KDNL 071353Z AUTO 28009G16KT 260V320 10SM CLR 18/06 A2999 RMK AO2 SLP151 T01780061
KDNL 071253Z AUTO 30011G19KT 10SM CLR 16/07 A2998 RMK AO2 SLP149 T01610072
KDNL 071153Z AUTO 31010KT 10SM CLR 14/07 A2996 RMK AO2 SLP141 T01440072 10167 20139 53014
KDNL 071053Z AUTO 30007KT 10SM CLR 14/07 A2993 RMK AO2 SLP133 T01390067